sensor_id;sensor_type;location;lat;lon;timestamp;P1;durP1;ratioP1;P2;durP2;ratioP2
12867;SDS011;33517;49.866;8.320;2023-04-28T00:01:33;2.33;;;1.23;;
12867;SDS011;33517;49.866;8.320;2023-04-28T00:04:25;0.95;;;0.93;;
12867;SDS011;33517;49.866;8.320;2023-04-28T00:07:19;0.90;;;0.77;;
12867;SDS011;33517;49.866;8.320;2023-04-28T00:10:10;1.15;;;1.02;;
12867;SDS011;33517;49.866;8.320;2023-04-28T00:13:02;2.10;;;1.77;;
12867;SDS011;33517;49.866;8.320;2023-04-28T00:15:54;0.77;;;0.77;;
12867;SDS011;33517;49.866;8.320;2023-04-28T00:18:46;0.88;;;0.88;;
12867;SDS011;33517;49.866;8.320;2023-04-28T00:21:38;1.17;;;1.08;;
12867;SDS011;33517;49.866;8.320;2023-04-28T00:24:31;0.80;;;0.80;;
12867;SDS011;33517;49.866;8.320;2023-04-28T00:27:25;0.77;;;0.77;;
12867;SDS011;33517;49.866;8.320;2023-04-28T00:30:17;1.27;;;1.20;;
12867;SDS011;33517;49.866;8.320;2023-04-28T00:33:09;1.85;;;1.17;;
12867;SDS011;33517;49.866;8.320;2023-04-28T00:36:01;2.60;;;1.38;;
12867;SDS011;33517;49.866;8.320;2023-04-28T00:38:53;1.17;;;1.08;;
12867;SDS011;33517;49.866;8.320;2023-04-28T00:41:46;1.75;;;1.17;;
12867;SDS011;33517;49.866;8.320;2023-04-28T00:44:38;1.35;;;1.05;;
12867;SDS011;33517;49.866;8.320;2023-04-28T00:47:31;2.22;;;1.35;;
12867;SDS011;33517;49.866;8.320;2023-04-28T00:50:23;1.40;;;1.30;;
12867;SDS011;33517;49.866;8.320;2023-04-28T00:53:16;1.30;;;1.20;;
12867;SDS011;33517;49.866;8.320;2023-04-28T00:56:08;1.35;;;1.25;;
12867;SDS011;33517;49.866;8.320;2023-04-28T00:59:01;1.20;;;1.10;;
12867;SDS011;33517;49.866;8.320;2023-04-28T01:01:53;1.08;;;1.08;;
12867;SDS011;33517;49.866;8.320;2023-04-28T01:04:45;1.88;;;1.38;;
12867;SDS011;33517;49.866;8.320;2023-04-28T01:07:38;1.33;;;1.23;;
12867;SDS011;33517;49.866;8.320;2023-04-28T01:10:30;1.08;;;1.02;;
12867;SDS011;33517;49.866;8.320;2023-04-28T01:13:22;1.70;;;1.60;;
12867;SDS011;33517;49.866;8.320;2023-04-28T01:16:15;1.30;;;0.95;;
12867;SDS011;33517;49.866;8.320;2023-04-28T01:19:07;1.38;;;1.25;;
12867;SDS011;33517;49.866;8.320;2023-04-28T01:22:06;1.60;;;1.10;;
12867;SDS011;33517;49.866;8.320;2023-04-28T01:25:01;1.30;;;1.20;;
12867;SDS011;33517;49.866;8.320;2023-04-28T01:27:53;1.42;;;1.20;;
12867;SDS011;33517;49.866;8.320;2023-04-28T01:30:45;1.23;;;1.17;;
12867;SDS011;33517;49.866;8.320;2023-04-28T01:33:37;2.47;;;1.48;;
12867;SDS011;33517;49.866;8.320;2023-04-28T01:36:29;1.40;;;1.30;;
12867;SDS011;33517;49.866;8.320;2023-04-28T01:39:22;2.20;;;1.98;;
12867;SDS011;33517;49.866;8.320;2023-04-28T01:42:15;2.83;;;1.08;;
12867;SDS011;33517;49.866;8.320;2023-04-28T01:45:08;1.90;;;0.98;;
12867;SDS011;33517;49.866;8.320;2023-04-28T01:48:01;1.58;;;1.40;;
12867;SDS011;33517;49.866;8.320;2023-04-28T01:50:53;2.10;;;0.73;;
12867;SDS011;33517;49.866;8.320;2023-04-28T01:53:44;3.38;;;2.05;;
12867;SDS011;33517;49.866;8.320;2023-04-28T01:56:36;1.83;;;1.60;;
12867;SDS011;33517;49.866;8.320;2023-04-28T01:59:29;2.80;;;1.40;;
12867;SDS011;33517;49.866;8.320;2023-04-28T02:02:21;2.30;;;1.50;;
12867;SDS011;33517;49.866;8.320;2023-04-28T02:05:13;11.13;;;0.98;;
12867;SDS011;33517;49.866;8.320;2023-04-28T02:08:05;1.38;;;1.05;;
12867;SDS011;33517;49.866;8.320;2023-04-28T02:10:57;1.52;;;1.42;;
12867;SDS011;33517;49.866;8.320;2023-04-28T02:13:51;1.45;;;1.23;;
12867;SDS011;33517;49.866;8.320;2023-04-28T02:16:44;1.55;;;1.35;;
12867;SDS011;33517;49.866;8.320;2023-04-28T02:19:36;1.77;;;1.67;;
12867;SDS011;33517;49.866;8.320;2023-04-28T02:22:28;2.55;;;1.23;;
12867;SDS011;33517;49.866;8.320;2023-04-28T02:25:20;1.35;;;0.93;;
12867;SDS011;33517;49.866;8.320;2023-04-28T02:28:12;4.57;;;1.20;;
12867;SDS011;33517;49.866;8.320;2023-04-28T02:31:04;0.85;;;0.85;;
12867;SDS011;33517;49.866;8.320;2023-04-28T02:33:58;4.10;;;1.48;;
12867;SDS011;33517;49.866;8.320;2023-04-28T02:36:50;2.30;;;1.92;;
12867;SDS011;33517;49.866;8.320;2023-04-28T02:39:42;1.70;;;1.15;;
12867;SDS011;33517;49.866;8.320;2023-04-28T02:42:34;1.73;;;1.60;;
12867;SDS011;33517;49.866;8.320;2023-04-28T02:45:25;1.83;;;1.73;;
12867;SDS011;33517;49.866;8.320;2023-04-28T02:48:17;3.42;;;1.67;;
12867;SDS011;33517;49.866;8.320;2023-04-28T02:51:11;1.55;;;1.45;;
12867;SDS011;33517;49.866;8.320;2023-04-28T02:54:03;1.33;;;1.23;;
12867;SDS011;33517;49.866;8.320;2023-04-28T02:56:55;2.78;;;1.85;;
12867;SDS011;33517;49.866;8.320;2023-04-28T02:59:48;1.45;;;1.27;;
12867;SDS011;33517;49.866;8.320;2023-04-28T03:02:40;0.95;;;0.95;;
12867;SDS011;33517;49.866;8.320;2023-04-28T03:05:32;1.35;;;1.25;;
12867;SDS011;33517;49.866;8.320;2023-04-28T03:08:25;1.23;;;1.00;;
12867;SDS011;33517;49.866;8.320;2023-04-28T03:11:17;8.50;;;2.05;;
12867;SDS011;33517;49.866;8.320;2023-04-28T03:14:09;2.10;;;1.58;;
12867;SDS011;33517;49.866;8.320;2023-04-28T03:17:00;1.23;;;1.13;;
12867;SDS011;33517;49.866;8.320;2023-04-28T03:19:52;2.22;;;1.70;;
12867;SDS011;33517;49.866;8.320;2023-04-28T03:22:44;3.45;;;1.48;;
12867;SDS011;33517;49.866;8.320;2023-04-28T03:25:37;0.90;;;0.90;;
12867;SDS011;33517;49.866;8.320;2023-04-28T03:28:29;1.33;;;1.23;;
12867;SDS011;33517;49.866;8.320;2023-04-28T03:31:21;2.85;;;1.63;;
12867;SDS011;33517;49.866;8.320;2023-04-28T03:34:13;2.53;;;1.45;;
12867;SDS011;33517;49.866;8.320;2023-04-28T03:37:05;1.55;;;1.45;;
12867;SDS011;33517;49.866;8.320;2023-04-28T03:39:57;2.50;;;1.90;;
12867;SDS011;33517;49.866;8.320;2023-04-28T03:42:50;1.52;;;1.33;;
12867;SDS011;33517;49.866;8.320;2023-04-28T03:45:42;0.93;;;0.88;;
12867;SDS011;33517;49.866;8.320;2023-04-28T03:48:34;1.67;;;1.45;;
12867;SDS011;33517;49.866;8.320;2023-04-28T03:51:25;0.88;;;0.88;;
12867;SDS011;33517;49.866;8.320;2023-04-28T03:54:18;2.10;;;1.95;;
12867;SDS011;33517;49.866;8.320;2023-04-28T03:57:10;2.97;;;1.92;;
12867;SDS011;33517;49.866;8.320;2023-04-28T04:00:04;3.95;;;2.15;;
12867;SDS011;33517;49.866;8.320;2023-04-28T04:02:57;1.35;;;1.25;;
12867;SDS011;33517;49.866;8.320;2023-04-28T04:05:49;2.03;;;1.60;;
12867;SDS011;33517;49.866;8.320;2023-04-28T04:08:40;2.38;;;1.20;;
12867;SDS011;33517;49.866;8.320;2023-04-28T04:11:32;1.90;;;1.60;;
12867;SDS011;33517;49.866;8.320;2023-04-28T04:14:24;1.63;;;1.52;;
12867;SDS011;33517;49.866;8.320;2023-04-28T04:17:17;3.13;;;2.35;;
12867;SDS011;33517;49.866;8.320;2023-04-28T04:20:09;1.92;;;1.83;;
12867;SDS011;33517;49.866;8.320;2023-04-28T04:23:01;2.13;;;1.40;;
12867;SDS011;33517;49.866;8.320;2023-04-28T04:25:53;1.55;;;1.33;;
12867;SDS011;33517;49.866;8.320;2023-04-28T04:28:46;4.20;;;1.70;;
12867;SDS011;33517;49.866;8.320;2023-04-28T04:31:38;3.30;;;1.42;;
12867;SDS011;33517;49.866;8.320;2023-04-28T04:34:31;1.15;;;1.08;;
12867;SDS011;33517;49.866;8.320;2023-04-28T04:37:23;1.48;;;1.15;;
12867;SDS011;33517;49.866;8.320;2023-04-28T04:40:15;1.90;;;1.50;;
12867;SDS011;33517;49.866;8.320;2023-04-28T04:43:07;1.50;;;1.40;;
12867;SDS011;33517;49.866;8.320;2023-04-28T04:45:59;1.02;;;1.00;;
12867;SDS011;33517;49.866;8.320;2023-04-28T04:48:53;0.95;;;0.93;;
12867;SDS011;33517;49.866;8.320;2023-04-28T04:51:46;1.77;;;1.13;;
12867;SDS011;33517;49.866;8.320;2023-04-28T04:54:38;1.35;;;0.95;;
12867;SDS011;33517;49.866;8.320;2023-04-28T04:57:30;1.40;;;1.30;;
12867;SDS011;33517;49.866;8.320;2023-04-28T05:00:21;1.95;;;1.15;;
12867;SDS011;33517;49.866;8.320;2023-04-28T05:03:13;1.33;;;1.02;;
12867;SDS011;33517;49.866;8.320;2023-04-28T05:06:05;0.95;;;0.95;;
12867;SDS011;33517;49.866;8.320;2023-04-28T05:08:58;1.20;;;1.08;;
12867;SDS011;33517;49.866;8.320;2023-04-28T05:11:50;2.15;;;1.50;;
12867;SDS011;33517;49.866;8.320;2023-04-28T05:14:42;7.30;;;3.10;;
12867;SDS011;33517;49.866;8.320;2023-04-28T05:17:34;33.70;;;17.60;;
12867;SDS011;33517;49.866;8.320;2023-04-28T05:20:26;23.08;;;13.27;;
12867;SDS011;33517;49.866;8.320;2023-04-28T05:23:18;6.55;;;5.10;;
12867;SDS011;33517;49.866;8.320;2023-04-28T05:26:11;16.30;;;8.52;;
12867;SDS011;33517;49.866;8.320;2023-04-28T05:29:03;8.38;;;4.22;;
12867;SDS011;33517;49.866;8.320;2023-04-28T05:31:56;11.07;;;6.13;;
12867;SDS011;33517;49.866;8.320;2023-04-28T05:34:48;22.08;;;10.65;;
12867;SDS011;33517;49.866;8.320;2023-04-28T05:37:39;12.25;;;6.63;;
12867;SDS011;33517;49.866;8.320;2023-04-28T05:40:33;19.95;;;13.70;;
12867;SDS011;33517;49.866;8.320;2023-04-28T05:43:26;15.23;;;9.07;;
12867;SDS011;33517;49.866;8.320;2023-04-28T05:46:18;8.68;;;5.63;;
12867;SDS011;33517;49.866;8.320;2023-04-28T05:49:10;6.93;;;2.95;;
12867;SDS011;33517;49.866;8.320;2023-04-28T05:52:02;8.88;;;5.95;;
12867;SDS011;33517;49.866;8.320;2023-04-28T05:54:54;7.03;;;4.55;;
12867;SDS011;33517;49.866;8.320;2023-04-28T05:57:46;14.27;;;9.68;;
12867;SDS011;33517;49.866;8.320;2023-04-28T06:00:39;13.20;;;4.57;;
12867;SDS011;33517;49.866;8.320;2023-04-28T06:03:31;14.82;;;10.55;;
12867;SDS011;33517;49.866;8.320;2023-04-28T06:06:23;30.55;;;16.33;;
12867;SDS011;33517;49.866;8.320;2023-04-28T06:09:17;9.82;;;4.18;;
12867;SDS011;33517;49.866;8.320;2023-04-28T06:12:09;11.25;;;4.82;;
12867;SDS011;33517;49.866;8.320;2023-04-28T06:15:01;9.55;;;6.32;;
12867;SDS011;33517;49.866;8.320;2023-04-28T06:17:54;11.60;;;5.65;;
12867;SDS011;33517;49.866;8.320;2023-04-28T06:20:46;2.67;;;1.98;;
12867;SDS011;33517;49.866;8.320;2023-04-28T06:23:38;7.70;;;4.35;;
12867;SDS011;33517;49.866;8.320;2023-04-28T06:26:31;3.70;;;2.13;;
12867;SDS011;33517;49.866;8.320;2023-04-28T06:29:23;4.65;;;3.17;;
12867;SDS011;33517;49.866;8.320;2023-04-28T06:32:17;4.90;;;3.75;;
12867;SDS011;33517;49.866;8.320;2023-04-28T06:35:10;3.03;;;1.67;;
12867;SDS011;33517;49.866;8.320;2023-04-28T06:38:02;3.88;;;2.67;;
12867;SDS011;33517;49.866;8.320;2023-04-28T06:40:54;2.15;;;1.67;;
12867;SDS011;33517;49.866;8.320;2023-04-28T06:43:46;4.38;;;2.83;;
12867;SDS011;33517;49.866;8.320;2023-04-28T06:46:37;2.08;;;1.70;;
12867;SDS011;33517;49.866;8.320;2023-04-28T06:49:30;5.03;;;3.03;;
12867;SDS011;33517;49.866;8.320;2023-04-28T06:52:23;2.72;;;2.20;;
12867;SDS011;33517;49.866;8.320;2023-04-28T06:55:17;4.93;;;2.38;;
12867;SDS011;33517;49.866;8.320;2023-04-28T06:58:09;1.75;;;1.65;;
12867;SDS011;33517;49.866;8.320;2023-04-28T07:01:01;2.42;;;2.20;;
12867;SDS011;33517;49.866;8.320;2023-04-28T07:03:55;3.22;;;2.17;;
12867;SDS011;33517;49.866;8.320;2023-04-28T07:06:47;2.47;;;1.50;;
12867;SDS011;33517;49.866;8.320;2023-04-28T07:09:40;1.45;;;1.35;;
12867;SDS011;33517;49.866;8.320;2023-04-28T07:12:32;3.03;;;2.50;;
12867;SDS011;33517;49.866;8.320;2023-04-28T07:15:24;1.80;;;1.70;;
12867;SDS011;33517;49.866;8.320;2023-04-28T07:18:16;1.15;;;1.02;;
12867;SDS011;33517;49.866;8.320;2023-04-28T07:21:08;2.88;;;1.63;;
12867;SDS011;33517;49.866;8.320;2023-04-28T07:24:00;9.38;;;2.30;;
12867;SDS011;33517;49.866;8.320;2023-04-28T07:26:53;1.45;;;1.15;;
12867;SDS011;33517;49.866;8.320;2023-04-28T07:29:45;4.75;;;1.73;;
12867;SDS011;33517;49.866;8.320;2023-04-28T07:32:37;6.32;;;2.60;;
12867;SDS011;33517;49.866;8.320;2023-04-28T07:35:29;4.55;;;1.92;;
12867;SDS011;33517;49.866;8.320;2023-04-28T07:38:21;1.27;;;1.17;;
12867;SDS011;33517;49.866;8.320;2023-04-28T07:41:13;1.77;;;1.65;;
12867;SDS011;33517;49.866;8.320;2023-04-28T07:44:07;2.47;;;1.88;;
12867;SDS011;33517;49.866;8.320;2023-04-28T07:46:59;1.60;;;1.50;;
12867;SDS011;33517;49.866;8.320;2023-04-28T07:49:52;2.10;;;1.90;;
12867;SDS011;33517;49.866;8.320;2023-04-28T07:52:43;3.08;;;2.05;;
12867;SDS011;33517;49.866;8.320;2023-04-28T07:55:35;1.73;;;1.60;;
12867;SDS011;33517;49.866;8.320;2023-04-28T07:58:28;2.38;;;1.83;;
12867;SDS011;33517;49.866;8.320;2023-04-28T08:01:21;3.30;;;2.30;;
12867;SDS011;33517;49.866;8.320;2023-04-28T08:04:13;5.22;;;2.30;;
12867;SDS011;33517;49.866;8.320;2023-04-28T08:07:05;1.63;;;1.52;;
12867;SDS011;33517;49.866;8.320;2023-04-28T08:09:57;15.18;;;8.57;;
12867;SDS011;33517;49.866;8.320;2023-04-28T08:12:49;3.08;;;2.60;;
12867;SDS011;33517;49.866;8.320;2023-04-28T08:15:41;5.65;;;3.40;;
12867;SDS011;33517;49.866;8.320;2023-04-28T08:18:34;2.88;;;2.05;;
12867;SDS011;33517;49.866;8.320;2023-04-28T08:21:26;3.90;;;2.33;;
12867;SDS011;33517;49.866;8.320;2023-04-28T08:24:18;2.15;;;1.95;;
12867;SDS011;33517;49.866;8.320;2023-04-28T08:27:10;6.07;;;3.42;;
12867;SDS011;33517;49.866;8.320;2023-04-28T08:30:02;5.57;;;3.40;;
12867;SDS011;33517;49.866;8.320;2023-04-28T08:32:54;2.28;;;2.17;;
12867;SDS011;33517;49.866;8.320;2023-04-28T08:35:48;3.42;;;2.45;;
12867;SDS011;33517;49.866;8.320;2023-04-28T08:38:40;2.10;;;1.90;;
12867;SDS011;33517;49.866;8.320;2023-04-28T08:41:32;10.30;;;6.13;;
12867;SDS011;33517;49.866;8.320;2023-04-28T08:44:28;4.82;;;3.42;;
12867;SDS011;33517;49.866;8.320;2023-04-28T08:47:23;4.60;;;2.55;;
12867;SDS011;33517;49.866;8.320;2023-04-28T08:50:22;4.10;;;2.80;;
12867;SDS011;33517;49.866;8.320;2023-04-28T08:53:20;4.38;;;2.92;;
12867;SDS011;33517;49.866;8.320;2023-04-28T08:56:14;3.08;;;2.47;;
12867;SDS011;33517;49.866;8.320;2023-04-28T08:59:07;7.03;;;5.60;;
12867;SDS011;33517;49.866;8.320;2023-04-28T09:01:59;5.05;;;3.53;;
12867;SDS011;33517;49.866;8.320;2023-04-28T09:04:51;2.97;;;2.63;;
12867;SDS011;33517;49.866;8.320;2023-04-28T09:07:44;6.15;;;4.57;;
12867;SDS011;33517;49.866;8.320;2023-04-28T09:10:38;3.05;;;2.78;;
12867;SDS011;33517;49.866;8.320;2023-04-28T09:13:31;3.88;;;2.90;;
12867;SDS011;33517;49.866;8.320;2023-04-28T09:16:24;8.40;;;3.20;;
12867;SDS011;33517;49.866;8.320;2023-04-28T09:19:34;5.28;;;3.63;;
12867;SDS011;33517;49.866;8.320;2023-04-28T09:22:26;3.85;;;2.92;;
12867;SDS011;33517;49.866;8.320;2023-04-28T09:25:19;3.65;;;2.95;;
12867;SDS011;33517;49.866;8.320;2023-04-28T09:28:20;4.45;;;3.20;;
12867;SDS011;33517;49.866;8.320;2023-04-28T09:31:21;5.40;;;3.42;;
12867;SDS011;33517;49.866;8.320;2023-04-28T09:34:13;2.80;;;2.55;;
12867;SDS011;33517;49.866;8.320;2023-04-28T09:37:06;4.53;;;2.92;;
12867;SDS011;33517;49.866;8.320;2023-04-28T09:40:06;3.97;;;3.15;;
12867;SDS011;33517;49.866;8.320;2023-04-28T09:42:59;5.45;;;3.67;;
12867;SDS011;33517;49.866;8.320;2023-04-28T09:45:52;6.15;;;2.38;;
12867;SDS011;33517;49.866;8.320;2023-04-28T09:48:45;3.78;;;3.03;;
12867;SDS011;33517;49.866;8.320;2023-04-28T09:51:37;6.03;;;3.58;;
12867;SDS011;33517;49.866;8.320;2023-04-28T09:54:29;3.45;;;2.65;;
12867;SDS011;33517;49.866;8.320;2023-04-28T09:57:22;4.22;;;3.35;;
12867;SDS011;33517;49.866;8.320;2023-04-28T10:00:14;5.40;;;3.33;;
12867;SDS011;33517;49.866;8.320;2023-04-28T10:03:09;10.25;;;3.30;;
12867;SDS011;33517;49.866;8.320;2023-04-28T10:06:02;6.97;;;4.93;;
12867;SDS011;33517;49.866;8.320;2023-04-28T10:08:56;5.35;;;4.20;;
12867;SDS011;33517;49.866;8.320;2023-04-28T10:11:49;5.10;;;3.28;;
12867;SDS011;33517;49.866;8.320;2023-04-28T10:14:41;4.82;;;3.10;;
12867;SDS011;33517;49.866;8.320;2023-04-28T10:17:34;5.43;;;3.92;;
12867;SDS011;33517;49.866;8.320;2023-04-28T10:20:29;4.78;;;3.58;;
12867;SDS011;33517;49.866;8.320;2023-04-28T10:23:30;5.15;;;4.05;;
12867;SDS011;33517;49.866;8.320;2023-04-28T10:30:10;4.43;;;3.30;;
12867;SDS011;33517;49.866;8.320;2023-04-28T10:33:22;3.75;;;2.83;;
12867;SDS011;33517;49.866;8.320;2023-04-28T10:43:07;6.47;;;3.28;;
12867;SDS011;33517;49.866;8.320;2023-04-28T10:46:01;4.32;;;3.22;;
12867;SDS011;33517;49.866;8.320;2023-04-28T10:48:56;6.20;;;4.35;;
12867;SDS011;33517;49.866;8.320;2023-04-28T10:51:49;5.55;;;3.33;;
12867;SDS011;33517;49.866;8.320;2023-04-28T10:54:41;4.53;;;3.65;;
12867;SDS011;33517;49.866;8.320;2023-04-28T11:01:26;7.97;;;5.72;;
12867;SDS011;33517;49.866;8.320;2023-04-28T11:04:20;6.65;;;4.70;;
12867;SDS011;33517;49.866;8.320;2023-04-28T11:07:14;6.22;;;3.28;;
12867;SDS011;33517;49.866;8.320;2023-04-28T11:10:07;6.35;;;3.58;;
12867;SDS011;33517;49.866;8.320;2023-04-28T11:16:16;3.75;;;3.03;;
12867;SDS011;33517;49.866;8.320;2023-04-28T11:19:10;3.63;;;2.63;;
12867;SDS011;33517;49.866;8.320;2023-04-28T11:22:04;4.13;;;3.28;;
12867;SDS011;33517;49.866;8.320;2023-04-28T11:25:02;19.20;;;8.57;;
12867;SDS011;33517;49.866;8.320;2023-04-28T11:27:54;4.03;;;3.53;;
12867;SDS011;33517;49.866;8.320;2023-04-28T11:31:08;2.53;;;2.33;;
12867;SDS011;33517;49.866;8.320;2023-04-28T11:34:02;5.82;;;3.75;;
12867;SDS011;33517;49.866;8.320;2023-04-28T11:36:55;10.85;;;4.75;;
12867;SDS011;33517;49.866;8.320;2023-04-28T11:39:47;8.13;;;3.35;;
12867;SDS011;33517;49.866;8.320;2023-04-28T11:42:47;11.88;;;7.85;;
12867;SDS011;33517;49.866;8.320;2023-04-28T11:45:39;9.13;;;6.43;;
12867;SDS011;33517;49.866;8.320;2023-04-28T11:48:36;3.88;;;3.17;;
12867;SDS011;33517;49.866;8.320;2023-04-28T11:51:35;4.60;;;3.10;;
12867;SDS011;33517;49.866;8.320;2023-04-28T11:54:28;5.90;;;2.70;;
12867;SDS011;33517;49.866;8.320;2023-04-28T11:57:20;4.95;;;3.60;;
12867;SDS011;33517;49.866;8.320;2023-04-28T12:00:14;3.85;;;3.28;;
12867;SDS011;33517;49.866;8.320;2023-04-28T12:03:11;2.47;;;2.28;;
12867;SDS011;33517;49.866;8.320;2023-04-28T12:06:03;5.25;;;3.50;;
12867;SDS011;33517;49.866;8.320;2023-04-28T12:08:55;3.70;;;3.00;;
12867;SDS011;33517;49.866;8.320;2023-04-28T12:11:52;11.38;;;3.80;;
12867;SDS011;33517;49.866;8.320;2023-04-28T12:14:52;6.72;;;3.88;;
12867;SDS011;33517;49.866;8.320;2023-04-28T12:17:47;3.97;;;2.83;;
12867;SDS011;33517;49.866;8.320;2023-04-28T12:20:39;7.93;;;4.55;;
12867;SDS011;33517;49.866;8.320;2023-04-28T12:23:34;4.97;;;3.45;;
12867;SDS011;33517;49.866;8.320;2023-04-28T12:26:26;6.40;;;3.90;;
12867;SDS011;33517;49.866;8.320;2023-04-28T12:29:37;4.70;;;3.78;;
12867;SDS011;33517;49.866;8.320;2023-04-28T12:32:36;6.57;;;3.88;;
12867;SDS011;33517;49.866;8.320;2023-04-28T12:35:30;3.83;;;3.33;;
12867;SDS011;33517;49.866;8.320;2023-04-28T12:38:23;2.90;;;2.63;;
12867;SDS011;33517;49.866;8.320;2023-04-28T12:41:15;3.17;;;2.88;;
12867;SDS011;33517;49.866;8.320;2023-04-28T12:44:06;3.97;;;3.20;;
12867;SDS011;33517;49.866;8.320;2023-04-28T12:46:58;3.53;;;2.42;;
12867;SDS011;33517;49.866;8.320;2023-04-28T12:49:51;2.30;;;2.10;;
12867;SDS011;33517;49.866;8.320;2023-04-28T12:52:44;3.08;;;2.63;;
12867;SDS011;33517;49.866;8.320;2023-04-28T12:55:36;4.72;;;2.78;;
12867;SDS011;33517;49.866;8.320;2023-04-28T12:58:30;3.42;;;2.25;;
12867;SDS011;33517;49.866;8.320;2023-04-28T13:01:21;3.65;;;2.50;;
12867;SDS011;33517;49.866;8.320;2023-04-28T13:04:14;2.28;;;2.05;;
12867;SDS011;33517;49.866;8.320;2023-04-28T13:07:06;2.83;;;2.22;;
12867;SDS011;33517;49.866;8.320;2023-04-28T13:09:59;2.78;;;1.52;;
12867;SDS011;33517;49.866;8.320;2023-04-28T13:12:51;3.10;;;2.38;;
12867;SDS011;33517;49.866;8.320;2023-04-28T13:15:43;2.00;;;1.80;;
12867;SDS011;33517;49.866;8.320;2023-04-28T13:18:35;2.42;;;2.22;;
12867;SDS011;33517;49.866;8.320;2023-04-28T13:21:27;4.63;;;2.90;;
12867;SDS011;33517;49.866;8.320;2023-04-28T13:24:19;2.78;;;1.60;;
12867;SDS011;33517;49.866;8.320;2023-04-28T13:27:12;4.00;;;1.95;;
12867;SDS011;33517;49.866;8.320;2023-04-28T13:30:05;1.35;;;1.25;;
12867;SDS011;33517;49.866;8.320;2023-04-28T13:32:58;1.20;;;1.08;;
12867;SDS011;33517;49.866;8.320;2023-04-28T13:35:50;1.55;;;1.45;;
12867;SDS011;33517;49.866;8.320;2023-04-28T13:38:42;1.30;;;1.20;;
12867;SDS011;33517;49.866;8.320;2023-04-28T13:41:38;2.40;;;1.52;;
12867;SDS011;33517;49.866;8.320;2023-04-28T13:44:31;1.88;;;1.67;;
12867;SDS011;33517;49.866;8.320;2023-04-28T13:47:23;1.95;;;1.58;;
12867;SDS011;33517;49.866;8.320;2023-04-28T13:50:16;1.70;;;1.60;;
12867;SDS011;33517;49.866;8.320;2023-04-28T13:53:08;1.73;;;1.63;;
12867;SDS011;33517;49.866;8.320;2023-04-28T13:56:00;5.03;;;2.65;;
12867;SDS011;33517;49.866;8.320;2023-04-28T13:58:52;3.55;;;2.80;;
12867;SDS011;33517;49.866;8.320;2023-04-28T14:01:45;8.30;;;5.15;;
12867;SDS011;33517;49.866;8.320;2023-04-28T14:04:37;2.67;;;2.47;;
12867;SDS011;33517;49.866;8.320;2023-04-28T14:07:29;12.93;;;2.35;;
12867;SDS011;33517;49.866;8.320;2023-04-28T14:10:21;6.38;;;1.90;;
12867;SDS011;33517;49.866;8.320;2023-04-28T14:13:13;1.67;;;1.58;;
12867;SDS011;33517;49.866;8.320;2023-04-28T14:16:05;2.00;;;1.52;;
12867;SDS011;33517;49.866;8.320;2023-04-28T14:18:59;2.08;;;1.60;;
12867;SDS011;33517;49.866;8.320;2023-04-28T14:21:51;1.27;;;1.17;;
12867;SDS011;33517;49.866;8.320;2023-04-28T14:24:43;1.20;;;1.10;;
12867;SDS011;33517;49.866;8.320;2023-04-28T14:27:35;1.00;;;1.00;;
12867;SDS011;33517;49.866;8.320;2023-04-28T14:30:27;0.90;;;0.90;;
12867;SDS011;33517;49.866;8.320;2023-04-28T14:33:19;1.40;;;1.02;;
12867;SDS011;33517;49.866;8.320;2023-04-28T14:36:12;0.47;;;0.47;;
12867;SDS011;33517;49.866;8.320;2023-04-28T14:39:04;1.13;;;1.02;;
12867;SDS011;33517;49.866;8.320;2023-04-28T14:41:58;1.42;;;1.00;;
12867;SDS011;33517;49.866;8.320;2023-04-28T14:44:49;0.47;;;0.47;;
12867;SDS011;33517;49.866;8.320;2023-04-28T14:47:42;1.73;;;1.15;;
12867;SDS011;33517;49.866;8.320;2023-04-28T14:50:34;1.42;;;1.10;;
12867;SDS011;33517;49.866;8.320;2023-04-28T14:53:27;0.38;;;0.38;;
12867;SDS011;33517;49.866;8.320;2023-04-28T14:56:19;0.55;;;0.55;;
12867;SDS011;33517;49.866;8.320;2023-04-28T14:59:11;0.50;;;0.50;;
12867;SDS011;33517;49.866;8.320;2023-04-28T15:02:03;0.95;;;0.90;;
12867;SDS011;33517;49.866;8.320;2023-04-28T15:04:55;0.55;;;0.55;;
12867;SDS011;33517;49.866;8.320;2023-04-28T15:07:47;1.45;;;1.20;;
12867;SDS011;33517;49.866;8.320;2023-04-28T15:10:41;1.40;;;1.30;;
12867;SDS011;33517;49.866;8.320;2023-04-28T15:13:33;2.15;;;1.40;;
12867;SDS011;33517;49.866;8.320;2023-04-28T15:16:25;1.42;;;1.33;;
12867;SDS011;33517;49.866;8.320;2023-04-28T15:19:17;1.08;;;1.08;;
12867;SDS011;33517;49.866;8.320;2023-04-28T15:22:09;2.50;;;1.77;;
12867;SDS011;33517;49.866;8.320;2023-04-28T15:25:01;2.50;;;2.15;;
12867;SDS011;33517;49.866;8.320;2023-04-28T15:27:54;0.80;;;0.80;;
12867;SDS011;33517;49.866;8.320;2023-04-28T15:30:46;0.70;;;0.65;;
12867;SDS011;33517;49.866;8.320;2023-04-28T15:33:38;0.85;;;0.75;;
12867;SDS011;33517;49.866;8.320;2023-04-28T15:36:30;3.67;;;1.23;;
12867;SDS011;33517;49.866;8.320;2023-04-28T15:39:22;0.93;;;0.93;;
12867;SDS011;33517;49.866;8.320;2023-04-28T15:42:14;12.02;;;1.88;;
12867;SDS011;33517;49.866;8.320;2023-04-28T15:45:09;1.60;;;1.33;;
12867;SDS011;33517;49.866;8.320;2023-04-28T15:48:02;1.25;;;1.13;;
12867;SDS011;33517;49.866;8.320;2023-04-28T15:50:55;1.38;;;0.98;;
12867;SDS011;33517;49.866;8.320;2023-04-28T15:53:48;1.33;;;1.10;;
12867;SDS011;33517;49.866;8.320;2023-04-28T15:56:40;0.93;;;0.93;;
12867;SDS011;33517;49.866;8.320;2023-04-28T15:59:32;1.38;;;0.82;;
12867;SDS011;33517;49.866;8.320;2023-04-28T16:02:26;0.68;;;0.68;;
12867;SDS011;33517;49.866;8.320;2023-04-28T16:05:18;1.20;;;0.82;;
12867;SDS011;33517;49.866;8.320;2023-04-28T16:08:10;0.40;;;0.40;;
12867;SDS011;33517;49.866;8.320;2023-04-28T16:11:02;0.70;;;0.70;;
12867;SDS011;33517;49.866;8.320;2023-04-28T16:13:55;0.90;;;0.90;;
12867;SDS011;33517;49.866;8.320;2023-04-28T16:16:46;0.77;;;0.73;;
12867;SDS011;33517;49.866;8.320;2023-04-28T16:19:40;0.60;;;0.60;;
12867;SDS011;33517;49.866;8.320;2023-04-28T16:22:32;1.65;;;1.10;;
12867;SDS011;33517;49.866;8.320;2023-04-28T16:25:24;0.40;;;0.40;;
12867;SDS011;33517;49.866;8.320;2023-04-28T16:28:16;0.20;;;0.20;;
12867;SDS011;33517;49.866;8.320;2023-04-28T16:31:08;0.50;;;0.50;;
12867;SDS011;33517;49.866;8.320;2023-04-28T16:34:00;0.20;;;0.20;;
12867;SDS011;33517;49.866;8.320;2023-04-28T16:36:54;0.85;;;0.40;;
12867;SDS011;33517;49.866;8.320;2023-04-28T16:39:46;0.32;;;0.32;;
12867;SDS011;33517;49.866;8.320;2023-04-28T16:42:38;0.30;;;0.30;;
12867;SDS011;33517;49.866;8.320;2023-04-28T16:45:31;0.00;;;0.00;;
12867;SDS011;33517;49.866;8.320;2023-04-28T16:48:23;0.17;;;0.17;;
12867;SDS011;33517;49.866;8.320;2023-04-28T16:51:16;2.00;;;1.33;;
12867;SDS011;33517;49.866;8.320;2023-04-28T16:54:09;3.65;;;1.17;;
12867;SDS011;33517;49.866;8.320;2023-04-28T16:57:01;1.85;;;0.20;;
12867;SDS011;33517;49.866;8.320;2023-04-28T16:59:54;0.68;;;0.68;;
12867;SDS011;33517;49.866;8.320;2023-04-28T17:02:46;1.10;;;0.40;;
12867;SDS011;33517;49.866;8.320;2023-04-28T17:05:38;1.83;;;1.15;;
12867;SDS011;33517;49.866;8.320;2023-04-28T17:08:29;2.10;;;1.38;;
12867;SDS011;33517;49.866;8.320;2023-04-28T17:11:23;0.55;;;0.50;;
12867;SDS011;33517;49.866;8.320;2023-04-28T17:14:15;9.73;;;5.15;;
12867;SDS011;33517;49.866;8.320;2023-04-28T17:17:08;0.47;;;0.47;;
12867;SDS011;33517;49.866;8.320;2023-04-28T17:20:00;9.57;;;5.07;;
12867;SDS011;33517;49.866;8.320;2023-04-28T17:22:51;4.78;;;3.30;;
12867;SDS011;33517;49.866;8.320;2023-04-28T17:25:44;11.38;;;2.63;;
12867;SDS011;33517;49.866;8.320;2023-04-28T17:28:37;14.35;;;7.13;;
12867;SDS011;33517;49.866;8.320;2023-04-28T17:31:30;3.33;;;2.67;;
12867;SDS011;33517;49.866;8.320;2023-04-28T17:34:22;0.98;;;0.98;;
12867;SDS011;33517;49.866;8.320;2023-04-28T17:37:14;0.98;;;0.93;;